Time;durP1;ratioP1;P1;durP2;ratioP2;P2;SDS_P1;SDS_P2;PMS_P1;PMS_P2;Temp;Humidity;BMP_temperature;BMP_pressure;BME280_temperature;BME280_humidity;BME280_pressure;Samples;Min_cycle;Max_cycle;Signal;HPM_P1;HPM_P2
2021/10/30 00:00:23;;;;;;;13.35;6.43;;;13.00;99.90;;;;;;5073240;28;25098;-73
2021/10/30 00:02:48;;;;;;;8.57;6.55;;;13.00;99.90;;;;;;5071181;28;25059;-72
2021/10/30 00:05:14;;;;;;;9.60;6.30;;;13.00;99.90;;;;;;5059836;28;25122;-72
2021/10/30 00:07:41;;;;;;;8.82;6.10;;;13.00;99.90;;;;;;5060194;28;25010;-73
2021/10/30 00:10:07;;;;;;;11.27;6.30;;;13.00;99.90;;;;;;5065778;28;25085;-73
2021/10/30 00:12:34;;;;;;;7.53;5.60;;;13.00;99.90;;;;;;5067663;28;25102;-72
2021/10/30 00:15:00;;;;;;;9.45;6.47;;;13.00;99.90;;;;;;5071935;28;25080;-73
2021/10/30 00:17:26;;;;;;;10.20;6.18;;;12.90;99.90;;;;;;5033588;28;25059;-73
2021/10/30 00:19:52;;;;;;;8.77;7.70;;;12.90;99.90;;;;;;5068944;28;25133;-73
2021/10/30 00:22:18;;;;;;;8.20;6.63;;;12.80;99.90;;;;;;5052607;28;25094;-72
2021/10/30 00:24:43;;;;;;;12.38;7.38;;;12.80;99.90;;;;;;5067429;28;25074;-72
2021/10/30 00:27:10;;;;;;;10.05;7.05;;;12.80;99.90;;;;;;5067067;28;25096;-72
2021/10/30 00:29:37;;;;;;;9.68;7.20;;;12.90;99.90;;;;;;5047802;28;25060;-73
2021/10/30 00:32:04;;;;;;;9.23;7.40;;;12.90;99.90;;;;;;5039220;28;25056;-74
2021/10/30 00:34:29;;;;;;;8.85;7.07;;;12.80;99.90;;;;;;5069772;28;25075;-73
2021/10/30 00:36:55;;;;;;;11.43;7.82;;;12.90;99.90;;;;;;5063802;28;25102;-73
2021/10/30 00:39:21;;;;;;;10.35;7.60;;;12.90;99.90;;;;;;5068559;28;25047;-74
2021/10/30 00:41:51;;;;;;;10.60;7.70;;;12.90;99.90;;;;;;5055493;28;25103;-73
2021/10/30 00:44:19;;;;;;;7.60;6.78;;;13.00;99.90;;;;;;5070617;28;25136;-74
2021/10/30 00:46:48;;;;;;;9.07;6.53;;;12.90;99.90;;;;;;5067382;28;25081;-73
2021/10/30 00:49:16;;;;;;;12.00;7.38;;;12.90;99.90;;;;;;5078197;28;25090;-74
2021/10/30 00:51:44;;;;;;;12.73;7.85;;;12.90;99.90;;;;;;5069102;28;25159;-73
2021/10/30 00:54:12;;;;;;;9.50;7.25;;;12.80;99.90;;;;;;5070809;28;25070;-74
2021/10/30 00:56:39;;;;;;;13.52;8.73;;;12.80;99.90;;;;;;5069044;28;25142;-73
2021/10/30 00:59:09;;;;;;;9.77;8.25;;;12.90;99.90;;;;;;5070536;28;25339;-73
2021/10/30 01:01:36;;;;;;;9.95;6.97;;;12.90;99.90;;;;;;5068435;28;25065;-73
2021/10/30 01:04:02;;;;;;;7.47;6.78;;;12.80;99.90;;;;;;5066807;28;25085;-74
2021/10/30 01:06:29;;;;;;;11.88;6.90;;;12.80;99.90;;;;;;5037136;28;25080;-72
2021/10/30 01:08:54;;;;;;;7.82;6.70;;;12.80;99.90;;;;;;5059953;28;25162;-73
2021/10/30 01:11:20;;;;;;;9.10;6.80;;;12.70;99.90;;;;;;5058675;28;25090;-73
2021/10/30 01:13:47;;;;;;;10.30;6.35;;;12.70;99.90;;;;;;5071150;28;25104;-73
2021/10/30 01:16:12;;;;;;;7.85;6.70;;;12.70;99.90;;;;;;5062547;28;25082;-73
2021/10/30 01:18:39;;;;;;;8.65;6.50;;;12.70;99.90;;;;;;5068739;28;25055;-72
2021/10/30 01:21:05;;;;;;;10.35;6.68;;;12.80;99.90;;;;;;5067815;28;25073;-74
2021/10/30 01:23:31;;;;;;;12.27;6.05;;;12.80;99.90;;;;;;5044239;28;25086;-74
2021/10/30 01:26:01;;;;;;;9.90;6.95;;;12.80;99.90;;;;;;5064086;28;25139;-74
2021/10/30 01:28:29;;;;;;;8.40;6.57;;;12.80;99.90;;;;;;5034936;28;25159;-73
2021/10/30 01:30:56;;;;;;;8.10;6.55;;;12.80;99.90;;;;;;5062796;28;25052;-73
2021/10/30 01:33:23;;;;;;;9.73;7.25;;;12.80;99.90;;;;;;5060865;28;25094;-74
2021/10/30 01:35:49;;;;;;;7.93;6.78;;;12.80;99.90;;;;;;5064322;28;25145;-72
2021/10/30 01:38:15;;;;;;;9.18;6.60;;;12.80;99.90;;;;;;5049347;28;25058;-74
2021/10/30 01:40:49;;;;;;;10.98;6.13;;;12.80;99.90;;;;;;5062148;28;25080;-74
2021/10/30 01:43:16;;;;;;;9.48;6.47;;;12.80;99.90;;;;;;5062269;28;25091;-73
2021/10/30 01:45:43;;;;;;;10.07;6.75;;;12.90;99.90;;;;;;5053875;28;25090;-73
2021/10/30 01:48:09;;;;;;;9.52;7.05;;;12.90;99.90;;;;;;5051620;28;25077;-73
2021/10/30 01:50:37;;;;;;;11.02;8.10;;;12.80;99.90;;;;;;5050766;28;25064;-73
2021/10/30 01:53:03;;;;;;;8.40;7.50;;;12.80;99.90;;;;;;5067708;28;25089;-73
2021/10/30 01:55:34;;;;;;;9.13;7.88;;;12.70;99.90;;;;;;5061590;28;25062;-71
2021/10/30 01:58:01;;;;;;;9.10;7.30;;;12.70;99.90;;;;;;5060261;28;25058;-73
2021/10/30 02:00:28;;;;;;;9.43;7.93;;;12.60;99.90;;;;;;5062108;28;25129;-72
2021/10/30 02:02:53;;;;;;;11.48;8.00;;;12.60;99.90;;;;;;5037518;28;25069;-72
2021/10/30 02:05:19;;;;;;;10.75;8.25;;;12.50;99.90;;;;;;5068302;28;25059;-74
2021/10/30 02:07:45;;;;;;;15.10;8.13;;;12.40;99.90;;;;;;5046727;28;25056;-73
2021/10/30 02:10:12;;;;;;;13.30;8.02;;;12.40;99.90;;;;;;5060248;28;25081;-73
2021/10/30 02:12:39;;;;;;;9.07;8.13;;;12.40;99.90;;;;;;5063923;28;25080;-73
2021/10/30 02:15:06;;;;;;;9.60;8.63;;;12.40;99.90;;;;;;5057244;28;25053;-72
2021/10/30 02:17:32;;;;;;;10.70;8.50;;;12.40;99.90;;;;;;5061546;28;25114;-73
2021/10/30 02:19:57;;;;;;;9.63;8.23;;;12.40;99.90;;;;;;5063937;28;25055;-73
2021/10/30 02:22:24;;;;;;;9.68;8.55;;;12.40;99.90;;;;;;5075526;28;25059;-73
2021/10/30 02:24:50;;;;;;;9.93;8.40;;;12.40;99.90;;;;;;5050374;28;25058;-72
2021/10/30 02:27:15;;;;;;;12.23;8.80;;;12.40;99.90;;;;;;5057268;28;25079;-72
2021/10/30 02:29:41;;;;;;;16.17;8.75;;;12.40;99.90;;;;;;5054982;28;25053;-73
2021/10/30 02:32:07;;;;;;;11.43;8.80;;;12.40;99.90;;;;;;5058183;28;25057;-71
2021/10/30 02:34:33;;;;;;;12.80;9.18;;;12.40;99.90;;;;;;5063660;28;25099;-72
2021/10/30 02:36:59;;;;;;;10.57;8.25;;;12.40;99.90;;;;;;5062330;28;25058;-73
2021/10/30 02:39:37;;;;;;;11.50;10.30;;;12.30;99.90;;;;;;5071363;28;25066;-73
2021/10/30 02:42:03;;;;;;;11.65;9.80;;;12.30;99.90;;;;;;5082875;28;25052;-73
2021/10/30 02:44:29;;;;;;;9.35;8.48;;;12.30;99.90;;;;;;5069590;28;25071;-74
2021/10/30 02:46:54;;;;;;;10.15;9.05;;;12.30;99.90;;;;;;5064474;28;25052;-73
2021/10/30 02:49:20;;;;;;;11.65;8.90;;;12.40;99.90;;;;;;5069530;28;25108;-73
2021/10/30 02:51:45;;;;;;;11.88;9.63;;;12.30;99.90;;;;;;5068951;28;25133;-73
2021/10/30 02:54:11;;;;;;;14.05;9.88;;;12.30;99.90;;;;;;5071777;28;25064;-72
2021/10/30 02:56:36;;;;;;;11.93;9.10;;;12.30;99.90;;;;;;5090256;28;25087;-74
2021/10/30 02:59:05;;;;;;;13.00;10.27;;;12.30;99.90;;;;;;5075235;28;25078;-73
2021/10/30 03:01:31;;;;;;;12.48;8.73;;;12.30;99.90;;;;;;5089642;28;25059;-73
2021/10/30 03:03:56;;;;;;;10.13;8.77;;;12.30;99.90;;;;;;5080043;28;25077;-73
2021/10/30 03:06:22;;;;;;;10.25;9.23;;;12.40;99.90;;;;;;5066458;28;25060;-73
2021/10/30 03:08:49;;;;;;;13.05;9.27;;;12.40;99.90;;;;;;5066798;28;25073;-74
2021/10/30 03:11:17;;;;;;;12.35;10.38;;;12.40;99.90;;;;;;5070222;28;25155;-72
2021/10/30 03:13:46;;;;;;;12.35;9.85;;;12.40;99.90;;;;;;5079862;28;25083;-72
2021/10/30 03:16:11;;;;;;;16.20;9.70;;;12.40;99.90;;;;;;5069057;28;25110;-73
2021/10/30 03:18:37;;;;;;;12.45;8.75;;;12.40;99.90;;;;;;5047985;28;25132;-72
2021/10/30 03:21:04;;;;;;;12.00;9.38;;;12.50;99.90;;;;;;5063770;28;25068;-72
2021/10/30 03:23:30;;;;;;;13.13;9.48;;;12.50;99.90;;;;;;5067189;28;25094;-73
2021/10/30 03:25:55;;;;;;;10.70;8.32;;;12.40;99.90;;;;;;5069036;28;25049;-72
2021/10/30 03:28:21;;;;;;;13.45;9.70;;;12.50;99.90;;;;;;5058944;28;25069;-72
2021/10/30 03:30:47;;;;;;;12.52;9.50;;;12.50;99.90;;;;;;5067756;28;25171;-75
2021/10/30 03:33:12;;;;;;;13.30;9.13;;;12.50;99.90;;;;;;5058872;28;25066;-72
2021/10/30 03:35:39;;;;;;;11.45;9.88;;;12.50;99.90;;;;;;5059692;28;25066;-72
2021/10/30 03:38:05;;;;;;;14.13;9.65;;;12.50;99.90;;;;;;5067140;28;25062;-74
2021/10/30 03:40:30;;;;;;;12.82;9.50;;;12.50;99.90;;;;;;5056334;28;25082;-72
2021/10/30 03:42:56;;;;;;;12.98;9.02;;;12.50;99.90;;;;;;5068655;28;25078;-73
2021/10/30 03:45:22;;;;;;;13.82;10.15;;;12.40;99.90;;;;;;5066667;28;25071;-73
2021/10/30 03:47:48;;;;;;;13.63;9.25;;;12.50;99.90;;;;;;5065916;28;25110;-72
2021/10/30 03:50:14;;;;;;;12.10;9.73;;;12.50;99.90;;;;;;5069039;28;25126;-71
2021/10/30 03:52:40;;;;;;;16.25;8.77;;;12.50;99.90;;;;;;5067769;28;25145;-73
2021/10/30 03:55:06;;;;;;;11.52;9.30;;;12.50;99.90;;;;;;5068087;28;25069;-71
2021/10/30 03:57:32;;;;;;;10.95;7.97;;;12.50;99.90;;;;;;5068320;28;25126;-73
2021/10/30 03:59:58;;;;;;;12.65;9.25;;;12.50;99.90;;;;;;5070051;28;25069;-73
2021/10/30 04:02:24;;;;;;;11.35;8.38;;;12.50;99.90;;;;;;5069316;28;25066;-72
2021/10/30 04:04:50;;;;;;;9.68;8.55;;;12.60;99.90;;;;;;5069387;28;25142;-71
2021/10/30 04:07:15;;;;;;;11.60;8.85;;;12.60;99.90;;;;;;5071857;28;25111;-73
2021/10/30 04:09:41;;;;;;;9.52;8.55;;;12.60;99.90;;;;;;5080571;28;25077;-72
2021/10/30 04:12:08;;;;;;;15.27;9.43;;;12.70;99.90;;;;;;5084887;28;25072;-71
2021/10/30 04:14:33;;;;;;;10.15;8.70;;;12.70;99.90;;;;;;5064422;28;25098;-73
2021/10/30 04:16:59;;;;;;;11.48;9.02;;;12.70;99.90;;;;;;5068969;28;25103;-73
2021/10/30 04:19:24;;;;;;;11.88;7.88;;;12.80;99.90;;;;;;5066938;28;25087;-73
2021/10/30 04:21:50;;;;;;;13.05;9.05;;;12.80;99.90;;;;;;5060509;28;25084;-73
2021/10/30 04:24:16;;;;;;;13.20;9.02;;;12.90;99.90;;;;;;5069473;28;25068;-73
2021/10/30 04:26:41;;;;;;;13.57;8.32;;;12.90;99.90;;;;;;5056997;28;25178;-72
2021/10/30 04:29:08;;;;;;;13.57;8.73;;;12.90;99.90;;;;;;5068358;28;25069;-72
2021/10/30 04:31:34;;;;;;;11.32;8.65;;;12.80;99.90;;;;;;5052961;28;25076;-73
2021/10/30 04:34:04;;;;;;;12.55;8.77;;;12.80;99.90;;;;;;5065890;28;25214;-73
2021/10/30 04:36:33;;;;;;;10.55;9.00;;;12.80;99.90;;;;;;5071442;28;25067;-73
2021/10/30 04:38:59;;;;;;;13.20;9.10;;;12.70;99.90;;;;;;5060299;28;25104;-73
2021/10/30 04:41:25;;;;;;;13.23;9.40;;;12.70;99.90;;;;;;5070366;28;25061;-73
2021/10/30 04:43:52;;;;;;;11.20;9.15;;;12.70;99.90;;;;;;5070249;28;25072;-73
2021/10/30 04:46:21;;;;;;;10.43;8.55;;;12.70;99.90;;;;;;5070504;28;25067;-73
2021/10/30 04:48:47;;;;;;;11.60;8.90;;;12.70;99.90;;;;;;5069156;28;25054;-73
2021/10/30 04:51:13;;;;;;;11.57;8.57;;;12.70;99.90;;;;;;5065240;28;25126;-73
2021/10/30 04:53:42;;;;;;;13.38;9.32;;;12.70;99.90;;;;;;5048671;28;25146;-72
2021/10/30 04:56:09;;;;;;;10.75;8.82;;;12.70;99.90;;;;;;5068318;28;25144;-73
2021/10/30 04:58:36;;;;;;;13.57;9.55;;;12.70;99.90;;;;;;5074140;28;25071;-72
2021/10/30 05:01:03;;;;;;;11.38;9.30;;;12.80;99.90;;;;;;5072001;28;25065;-71
2021/10/30 05:03:29;;;;;;;14.63;10.00;;;12.80;99.90;;;;;;5074858;28;25176;-73
2021/10/30 05:05:56;;;;;;;10.15;8.98;;;12.70;99.90;;;;;;5070788;28;25095;-72
2021/10/30 05:08:22;;;;;;;13.55;9.23;;;12.80;99.90;;;;;;5079662;28;25063;-72
2021/10/30 05:10:47;;;;;;;18.42;9.98;;;12.80;99.90;;;;;;5076444;28;25064;-72
2021/10/30 05:13:13;;;;;;;12.82;9.63;;;12.80;99.90;;;;;;5068889;28;25105;-72
2021/10/30 05:15:39;;;;;;;10.80;8.95;;;12.80;99.90;;;;;;5070974;28;25141;-72
2021/10/30 05:18:04;;;;;;;11.30;9.98;;;12.80;99.90;;;;;;5066638;28;25051;-72
2021/10/30 05:20:30;;;;;;;12.48;10.57;;;12.80;99.90;;;;;;5068354;28;25080;-73
2021/10/30 05:22:56;;;;;;;14.85;11.75;;;12.70;99.90;;;;;;5035923;28;25089;-72
2021/10/30 05:25:22;;;;;;;11.73;9.80;;;12.70;99.90;;;;;;5059596;28;25077;-73
2021/10/30 05:27:48;;;;;;;13.75;10.68;;;12.70;99.90;;;;;;5066480;28;25076;-74
2021/10/30 05:30:14;;;;;;;12.85;10.63;;;12.60;99.90;;;;;;5048790;28;25079;-74
2021/10/30 05:32:39;;;;;;;11.23;9.88;;;12.60;99.90;;;;;;5067893;28;25059;-73
2021/10/30 05:35:05;;;;;;;11.70;9.98;;;12.60;99.90;;;;;;5055959;28;25144;-73
2021/10/30 05:37:31;;;;;;;16.73;10.98;;;12.60;99.90;;;;;;5065386;28;25067;-75
2021/10/30 05:39:58;;;;;;;18.48;10.07;;;12.60;99.90;;;;;;5059819;28;25113;-74
2021/10/30 05:42:24;;;;;;;13.98;10.32;;;12.60;99.90;;;;;;5049696;28;25052;-74
2021/10/30 05:44:50;;;;;;;16.15;10.90;;;12.50;99.90;;;;;;5064216;28;25088;-73
2021/10/30 05:47:16;;;;;;;14.75;10.45;;;12.50;99.90;;;;;;5070053;28;25083;-74
2021/10/30 05:49:43;;;;;;;12.27;9.20;;;12.50;99.90;;;;;;5065505;28;25047;-72
2021/10/30 05:52:10;;;;;;;16.15;10.90;;;12.50;99.90;;;;;;5067459;28;25050;-73
2021/10/30 05:54:36;;;;;;;13.00;9.75;;;12.50;99.90;;;;;;5066656;28;25098;-73
2021/10/30 05:57:02;;;;;;;13.88;9.68;;;12.50;99.90;;;;;;5070853;28;25178;-73
2021/10/30 05:59:30;;;;;;;11.45;9.40;;;12.50;99.90;;;;;;5063801;28;25057;-73
2021/10/30 06:01:55;;;;;;;15.73;9.38;;;12.50;99.90;;;;;;5058238;28;25056;-75
2021/10/30 06:04:21;;;;;;;16.17;10.07;;;12.50;99.90;;;;;;5061418;28;25120;-74
2021/10/30 06:06:47;;;;;;;14.85;9.95;;;12.50;99.90;;;;;;5062799;28;25075;-73
2021/10/30 06:09:13;;;;;;;11.30;10.05;;;12.50;99.90;;;;;;5061475;28;25096;-73
2021/10/30 06:11:40;;;;;;;12.70;9.70;;;12.50;99.90;;;;;;5060517;28;25165;-74
2021/10/30 06:14:06;;;;;;;12.75;10.32;;;12.50;99.90;;;;;;5062472;28;25068;-74
2021/10/30 06:16:35;;;;;;;11.52;9.93;;;12.50;99.90;;;;;;5059017;28;25089;-73
2021/10/30 06:19:01;;;;;;;12.00;10.45;;;12.50;99.90;;;;;;5059601;28;25134;-74
2021/10/30 06:21:27;;;;;;;11.32;9.80;;;12.60;99.90;;;;;;5043369;28;25075;-74
2021/10/30 06:23:54;;;;;;;13.93;9.75;;;12.50;99.90;;;;;;5068837;28;25099;-72
2021/10/30 06:26:20;;;;;;;12.02;9.77;;;12.50;99.90;;;;;;5066107;28;25065;-72
2021/10/30 06:28:47;;;;;;;12.40;10.02;;;12.50;99.90;;;;;;5067063;28;25179;-73
2021/10/30 06:31:14;;;;;;;14.73;10.82;;;12.50;99.90;;;;;;5071944;28;25056;-73
2021/10/30 06:33:41;;;;;;;13.95;10.85;;;12.40;99.90;;;;;;5076579;28;25056;-73
2021/10/30 06:36:07;;;;;;;13.32;10.23;;;12.40;99.90;;;;;;5067182;28;25069;-72
2021/10/30 06:38:33;;;;;;;16.85;10.55;;;12.40;99.90;;;;;;5065765;28;25069;-73
2021/10/30 06:41:01;;;;;;;13.45;9.75;;;12.40;99.90;;;;;;5068871;28;25076;-73
2021/10/30 06:43:28;;;;;;;10.90;9.57;;;12.40;99.90;;;;;;5046859;28;25076;-73
2021/10/30 06:45:56;;;;;;;11.70;10.00;;;12.40;99.90;;;;;;5080182;28;25045;-72
2021/10/30 06:48:24;;;;;;;15.38;10.57;;;12.40;99.90;;;;;;5062930;28;25066;-73
2021/10/30 06:50:50;;;;;;;15.43;10.63;;;12.40;99.90;;;;;;5080032;28;25060;-73
2021/10/30 06:53:16;;;;;;;14.23;10.43;;;12.40;99.90;;;;;;5080545;28;25058;-73
2021/10/30 06:55:43;;;;;;;12.70;10.35;;;12.40;99.90;;;;;;5080533;28;25095;-71
2021/10/30 06:58:09;;;;;;;11.98;9.68;;;12.40;99.90;;;;;;5073452;28;25063;-73
2021/10/30 07:00:37;;;;;;;14.70;10.75;;;12.40;99.90;;;;;;5080238;28;25074;-74
2021/10/30 07:03:02;;;;;;;12.80;10.75;;;12.40;99.90;;;;;;5082173;28;25072;-73
2021/10/30 07:05:28;;;;;;;12.25;10.35;;;12.30;99.90;;;;;;5069171;28;25088;-76
2021/10/30 07:07:54;;;;;;;12.60;10.15;;;12.30;99.90;;;;;;5070734;28;25087;-72
2021/10/30 07:10:20;;;;;;;14.55;10.35;;;12.40;99.90;;;;;;5058610;28;25074;-74
2021/10/30 07:12:46;;;;;;;13.80;10.32;;;12.40;99.90;;;;;;5058222;28;25064;-75
2021/10/30 07:15:13;;;;;;;13.88;10.93;;;12.40;99.90;;;;;;5077780;28;25068;-74
2021/10/30 07:17:40;;;;;;;13.25;9.00;;;12.40;99.90;;;;;;5076424;28;25084;-72
2021/10/30 07:20:08;;;;;;;12.43;10.45;;;12.40;99.90;;;;;;5055879;28;25049;-76
2021/10/30 07:22:41;;;;;;;14.02;10.23;;;12.40;99.90;;;;;;5079021;28;25082;-75
2021/10/30 07:25:08;;;;;;;12.38;9.73;;;12.40;99.90;;;;;;5070003;28;25081;-73
2021/10/30 07:27:33;;;;;;;15.52;9.88;;;12.40;99.90;;;;;;5067413;28;25092;-71
2021/10/30 07:29:59;;;;;;;14.27;10.25;;;12.40;99.90;;;;;;5073560;28;25077;-73
2021/10/30 07:32:27;;;;;;;15.40;9.32;;;12.40;99.90;;;;;;5070323;28;25121;-71
2021/10/30 07:34:53;;;;;;;13.63;10.65;;;12.40;99.90;;;;;;5064347;28;25068;-73
2021/10/30 07:37:18;;;;;;;11.63;9.38;;;12.40;99.90;;;;;;5057398;28;25144;-72
2021/10/30 07:39:45;;;;;;;16.45;11.05;;;12.40;99.90;;;;;;5073760;28;25069;-75
2021/10/30 07:42:11;;;;;;;12.13;10.10;;;12.40;99.90;;;;;;5076590;28;25137;-73
2021/10/30 07:44:41;;;;;;;15.45;10.70;;;12.40;99.90;;;;;;5079267;28;25079;-73
2021/10/30 07:47:07;;;;;;;12.63;10.25;;;12.40;99.90;;;;;;5080459;28;25067;-74
2021/10/30 07:49:33;;;;;;;12.48;10.45;;;12.40;99.90;;;;;;5090060;28;25140;-72
2021/10/30 07:52:00;;;;;;;10.40;8.70;;;12.40;99.90;;;;;;5076875;28;25098;-73
2021/10/30 07:54:26;;;;;;;13.13;10.02;;;12.50;99.90;;;;;;5081519;28;25064;-72
2021/10/30 07:56:51;;;;;;;10.75;8.80;;;12.40;99.90;;;;;;5071001;28;25050;-70
2021/10/30 07:59:17;;;;;;;17.23;9.63;;;12.40;99.90;;;;;;5075349;28;25069;-72
2021/10/30 08:01:43;;;;;;;10.40;8.82;;;12.40;99.90;;;;;;5073644;28;25095;-72
2021/10/30 08:04:08;;;;;;;12.52;9.77;;;12.40;99.90;;;;;;5076306;28;25070;-73
2021/10/30 08:06:34;;;;;;;12.00;8.52;;;12.50;99.90;;;;;;5063006;28;25132;-72
2021/10/30 08:09:01;;;;;;;11.18;8.68;;;12.50;99.90;;;;;;5064726;28;25062;-73
2021/10/30 08:11:26;;;;;;;8.63;7.72;;;12.50;99.90;;;;;;5078681;28;25095;-70
2021/10/30 08:13:54;;;;;;;10.70;7.75;;;12.50;99.90;;;;;;5076279;28;25096;-71
2021/10/30 08:16:20;;;;;;;11.30;7.53;;;12.50;99.90;;;;;;5072241;28;25065;-72
2021/10/30 08:18:46;;;;;;;8.57;7.22;;;12.60;99.90;;;;;;5073018;28;25137;-74
2021/10/30 08:21:11;;;;;;;10.55;7.82;;;12.60;99.90;;;;;;5072950;28;25131;-69
2021/10/30 08:23:37;;;;;;;11.13;8.07;;;12.60;99.90;;;;;;5073664;28;25111;-72
2021/10/30 08:26:04;;;;;;;10.43;8.40;;;12.60;99.90;;;;;;5061131;28;25161;-74
2021/10/30 08:28:30;;;;;;;9.60;8.70;;;12.50;99.90;;;;;;5070166;28;25072;-71
2021/10/30 08:30:57;;;;;;;13.18;7.97;;;12.50;99.90;;;;;;5074257;28;25076;-73
2021/10/30 08:33:23;;;;;;;16.73;8.20;;;12.50;99.90;;;;;;5070583;28;25088;-74
2021/10/30 08:35:49;;;;;;;11.23;8.82;;;12.60;99.90;;;;;;5074034;28;25070;-72
2021/10/30 08:38:14;;;;;;;11.52;8.35;;;12.60;99.90;;;;;;5072084;28;25126;-73
2021/10/30 08:40:41;;;;;;;12.32;8.52;;;12.50;99.90;;;;;;5075666;28;25055;-73
2021/10/30 08:43:09;;;;;;;9.95;7.97;;;12.50;99.90;;;;;;5074537;28;25064;-72
2021/10/30 08:45:35;;;;;;;11.93;7.28;;;12.50;99.90;;;;;;5070187;28;25115;-73
2021/10/30 08:48:05;;;;;;;8.20;7.40;;;12.60;99.90;;;;;;5069079;28;25089;-72
2021/10/30 08:50:32;;;;;;;13.57;8.70;;;12.60;99.90;;;;;;5065448;28;25061;-72
2021/10/30 08:53:00;;;;;;;12.85;8.13;;;12.60;99.90;;;;;;5070237;28;25123;-71
2021/10/30 08:55:26;;;;;;;10.43;8.00;;;12.60;99.90;;;;;;5053499;28;25151;-71
2021/10/30 08:57:53;;;;;;;11.10;8.88;;;12.50;99.90;;;;;;5069566;28;25071;-70
2021/10/30 09:00:25;;;;;;;13.40;9.93;;;12.60;99.90;;;;;;5075059;28;25098;-67
2021/10/30 09:03:19;;;;;;;13.63;8.23;;;12.60;99.90;;;;;;5066847;28;25098;-69
2021/10/30 09:05:48;;;;;;;12.95;9.45;;;12.50;99.90;;;;;;5058522;28;25100;-71
2021/10/30 09:08:14;;;;;;;10.70;8.55;;;12.50;99.90;;;;;;5062942;28;25063;-69
2021/10/30 09:10:42;;;;;;;10.60;9.50;;;12.50;99.90;;;;;;5060319;28;25066;-67
2021/10/30 09:13:11;;;;;;;10.18;9.10;;;12.50;99.90;;;;;;5049692;28;25137;-69
2021/10/30 09:15:50;;;;;;;13.85;8.95;;;12.50;99.90;;;;;;5069949;28;25074;-70
2021/10/30 09:18:19;;;;;;;16.10;9.75;;;12.60;99.90;;;;;;5084849;28;25145;-68
2021/10/30 09:20:48;;;;;;;13.30;9.23;;;12.50;99.90;;;;;;5074065;28;25046;-70
2021/10/30 09:23:15;;;;;;;12.43;10.10;;;12.60;99.90;;;;;;5067407;28;25096;-68
2021/10/30 09:26:14;;;;;;;16.25;10.15;;;12.60;99.90;;;;;;5073647;28;25069;-68
2021/10/30 09:28:52;;;;;;;11.55;9.88;;;12.60;99.90;;;;;;5050305;28;25084;-69
2021/10/30 09:31:24;;;;;;;15.77;9.57;;;12.60;99.90;;;;;;5064621;28;25078;-69
2021/10/30 09:34:01;;;;;;;17.02;9.40;;;12.50;99.90;;;;;;5065839;28;25147;-68
2021/10/30 09:36:38;;;;;;;9.85;8.85;;;12.60;99.90;;;;;;5063840;28;25144;-69
2021/10/30 09:39:17;;;;;;;12.23;9.15;;;12.50;99.90;;;;;;5065571;28;25072;-68
2021/10/30 09:41:51;;;;;;;10.93;8.65;;;12.50;99.90;;;;;;5065851;28;25069;-68
2021/10/30 09:44:22;;;;;;;10.25;8.57;;;12.50;99.90;;;;;;5050597;28;25055;-68
2021/10/30 09:46:57;;;;;;;11.45;8.90;;;12.60;99.90;;;;;;5058762;28;25074;-68
2021/10/30 09:49:35;;;;;;;12.10;8.68;;;12.60;99.90;;;;;;5081979;28;25135;-69
2021/10/30 09:52:08;;;;;;;10.95;9.32;;;12.60;99.90;;;;;;5060612;28;25007;-68
2021/10/30 09:54:41;;;;;;;10.13;8.55;;;12.60;99.90;;;;;;5064713;28;25080;-70
2021/10/30 09:57:10;;;;;;;10.32;8.18;;;12.60;99.90;;;;;;5035662;28;25054;-70
2021/10/30 09:59:39;;;;;;;9.82;8.38;;;12.60;99.90;;;;;;5059413;28;25156;-69
2021/10/30 10:02:05;;;;;;;11.70;8.77;;;12.60;99.90;;;;;;5064822;28;25073;-69
2021/10/30 10:04:31;;;;;;;11.88;9.15;;;12.60;99.90;;;;;;5062409;28;25063;-70
2021/10/30 10:06:59;;;;;;;12.88;9.77;;;12.70;99.90;;;;;;5042661;28;25066;-68
2021/10/30 10:09:25;;;;;;;16.70;10.00;;;12.60;99.90;;;;;;5063412;28;25047;-70
2021/10/30 10:11:52;;;;;;;9.98;8.30;;;12.60;99.90;;;;;;5062140;28;25072;-68
2021/10/30 10:14:22;;;;;;;10.45;9.38;;;12.70;99.90;;;;;;5057631;28;25109;-69
2021/10/30 10:16:51;;;;;;;15.93;9.43;;;12.70;99.90;;;;;;5056619;28;25071;-69
2021/10/30 10:19:18;;;;;;;11.48;9.50;;;12.70;99.90;;;;;;5059214;28;25084;-69
2021/10/30 10:21:44;;;;;;;9.90;8.57;;;12.70;99.90;;;;;;5058942;28;25144;-67
2021/10/30 10:24:16;;;;;;;11.98;8.55;;;12.80;99.90;;;;;;5052512;28;25067;-68
2021/10/30 10:26:45;;;;;;;11.02;8.02;;;12.80;99.90;;;;;;5060486;28;25151;-68
2021/10/30 10:29:12;;;;;;;10.07;8.05;;;12.80;99.90;;;;;;5064715;28;25061;-69
2021/10/30 10:31:49;;;;;;;9.48;7.57;;;12.80;99.90;;;;;;5047206;28;25104;-69
2021/10/30 10:34:33;;;;;;;8.98;6.60;;;12.80;99.90;;;;;;5034020;28;25101;-69
2021/10/30 10:37:11;;;;;;;9.52;7.63;;;12.80;99.90;;;;;;5063814;28;25061;-68
2021/10/30 10:39:37;;;;;;;10.73;7.70;;;12.80;99.90;;;;;;5054082;28;25060;-66
2021/10/30 10:42:04;;;;;;;10.02;7.40;;;12.80;99.90;;;;;;5058530;28;25062;-69
2021/10/30 10:44:42;;;;;;;7.90;6.32;;;12.90;99.90;;;;;;5037976;28;25070;-69
2021/10/30 10:47:58;;;;;;;7.13;6.28;;;13.00;99.90;;;;;;5061585;28;25057;-66
2021/10/30 10:50:31;;;;;;;6.30;5.70;;;13.00;99.90;;;;;;5034174;28;25105;-67
2021/10/30 10:53:03;;;;;;;6.57;5.45;;;13.00;99.90;;;;;;5054652;28;25056;-68
2021/10/30 10:55:30;;;;;;;9.85;6.53;;;13.10;99.90;;;;;;5058798;28;25120;-67
2021/10/30 10:58:01;;;;;;;7.50;6.40;;;13.10;99.90;;;;;;5043009;28;25071;-67
2021/10/30 11:00:27;;;;;;;9.20;7.55;;;13.00;99.90;;;;;;5060331;28;25068;-67
2021/10/30 11:02:54;;;;;;;9.10;7.65;;;13.10;99.90;;;;;;5055942;28;25064;-69
2021/10/30 11:05:26;;;;;;;8.15;7.35;;;13.10;99.90;;;;;;5053840;28;25068;-70
2021/10/30 11:07:51;;;;;;;8.68;7.88;;;13.10;99.90;;;;;;5054872;28;25058;-68
2021/10/30 11:10:25;;;;;;;10.63;7.78;;;13.10;99.90;;;;;;5059525;28;25054;-68
2021/10/30 11:13:04;;;;;;;7.85;7.07;;;13.10;99.90;;;;;;5056129;28;25097;-68
2021/10/30 11:15:49;;;;;;;8.38;6.45;;;13.20;99.90;;;;;;5059873;28;25059;-68
2021/10/30 11:18:33;;;;;;;7.93;6.57;;;13.20;99.90;;;;;;5054758;28;25159;-67
2021/10/30 11:21:19;;;;;;;7.07;6.22;;;13.20;99.90;;;;;;5059987;28;25056;-69
2021/10/30 11:23:55;;;;;;;6.72;6.05;;;13.20;99.90;;;;;;5052614;28;25085;-69
2021/10/30 11:26:33;;;;;;;6.53;5.88;;;13.20;99.90;;;;;;5059711;28;25072;-66
2021/10/30 11:29:05;;;;;;;7.10;6.07;;;13.20;99.90;;;;;;5042842;28;25102;-68
2021/10/30 11:31:31;;;;;;;9.18;6.28;;;13.20;99.90;;;;;;5042087;28;25047;-67
2021/10/30 11:34:07;;;;;;;8.70;5.70;;;13.20;99.90;;;;;;5060855;28;25063;-68
2021/10/30 11:36:36;;;;;;;7.45;5.65;;;13.20;99.90;;;;;;5060658;28;25147;-70
2021/10/30 11:39:06;;;;;;;5.80;5.30;;;13.20;99.90;;;;;;5058699;28;25094;-68
2021/10/30 11:41:33;;;;;;;6.68;5.55;;;13.20;99.90;;;;;;5059482;28;25059;-67
2021/10/30 11:44:02;;;;;;;7.70;5.82;;;13.20;99.90;;;;;;5063854;28;25075;-66
2021/10/30 11:46:28;;;;;;;6.55;5.57;;;13.20;99.90;;;;;;5063080;28;25098;-67
2021/10/30 11:48:56;;;;;;;5.80;4.68;;;13.30;99.90;;;;;;5051541;28;25099;-67
2021/10/30 11:51:26;;;;;;;7.90;4.85;;;13.40;99.90;;;;;;5064963;28;25126;-68
2021/10/30 11:53:52;;;;;;;6.47;4.82;;;13.30;99.90;;;;;;5063345;28;25059;-67
2021/10/30 11:56:25;;;;;;;6.30;5.10;;;13.30;99.90;;;;;;5066362;28;25054;-67
2021/10/30 11:59:03;;;;;;;5.63;4.85;;;13.30;99.90;;;;;;5068185;28;25075;-67
2021/10/30 12:01:41;;;;;;;6.10;4.45;;;13.40;99.90;;;;;;5070560;28;25058;-67
2021/10/30 12:04:11;;;;;;;7.75;5.38;;;13.40;99.90;;;;;;5063371;28;25135;-66
2021/10/30 12:06:52;;;;;;;5.32;4.80;;;13.50;99.90;;;;;;5069119;28;25046;-67
2021/10/30 12:09:25;;;;;;;4.95;4.45;;;13.50;99.90;;;;;;5076128;28;25061;-67
2021/10/30 12:11:56;;;;;;;6.10;4.82;;;13.50;99.90;;;;;;5065003;28;25096;-70
2021/10/30 12:14:27;;;;;;;4.72;4.30;;;13.50;99.90;;;;;;5047754;28;25068;-67
2021/10/30 12:16:54;;;;;;;5.72;4.50;;;13.60;99.90;;;;;;5051519;28;25096;-69
2021/10/30 12:19:23;;;;;;;4.13;3.78;;;13.60;99.90;;;;;;5066191;28;25072;-69
2021/10/30 12:21:49;;;;;;;4.68;4.28;;;13.50;99.90;;;;;;5032054;28;25071;-69
2021/10/30 12:24:28;;;;;;;6.28;4.25;;;13.50;99.90;;;;;;5063951;28;25095;-67
2021/10/30 12:26:59;;;;;;;4.65;4.20;;;13.50;99.90;;;;;;5062167;28;25100;-68
2021/10/30 12:29:29;;;;;;;3.42;3.13;;;13.50;99.90;;;;;;5065316;28;25054;-68
2021/10/30 12:32:03;;;;;;;5.28;3.78;;;13.50;99.90;;;;;;5055959;28;25044;-68
2021/10/30 12:34:33;;;;;;;5.82;3.72;;;13.60;99.90;;;;;;5055379;28;25079;-69
2021/10/30 12:37:02;;;;;;;4.13;3.40;;;13.50;99.90;;;;;;5067657;28;25087;-68
2021/10/30 12:39:27;;;;;;;3.85;3.53;;;13.60;99.90;;;;;;5059879;28;25134;-68
2021/10/30 12:41:55;;;;;;;5.57;3.45;;;13.50;99.90;;;;;;5067599;28;25093;-68